Time;durP1;ratioP1;P1;durP2;ratioP2;P2;SDS_P1;SDS_P2;PMS_P1;PMS_P2;Temp;Humidity;BMP_temperature;BMP_pressure;BME280_temperature;BME280_humidity;BME280_pressure;Samples;Min_cycle;Max_cycle;Signal;HPM_P1;HPM_P2
2023/08/30 00:02:03;;;;;;;9.57;8.93;;;17.30;63.80;;;;;;20750;6833;117581;-69
2023/08/30 00:04:29;;;;;;;9.40;8.83;;;16.80;65.80;;;;;;20758;6833;120894;-69
2023/08/30 00:06:55;;;;;;;12.70;11.80;;;16.80;65.10;;;;;;20546;6833;278030;-69
2023/08/30 00:09:20;;;;;;;11.05;10.23;;;17.00;64.70;;;;;;20752;6833;120504;-69
2023/08/30 00:11:46;;;;;;;10.07;9.48;;;17.00;64.80;;;;;;20658;6833;120011;-69
2023/08/30 00:14:11;;;;;;;9.95;9.05;;;16.80;65.30;;;;;;20752;6833;117546;-69
2023/08/30 00:16:38;;;;;;;9.13;8.52;;;16.60;65.90;;;;;;20720;6833;117404;-69
2023/08/30 00:19:03;;;;;;;10.48;9.75;;;16.50;66.60;;;;;;20730;6833;123148;-69
2023/08/30 00:21:28;;;;;;;13.50;12.60;;;16.40;67.20;;;;;;20508;6833;307914;-69
2023/08/30 00:23:54;;;;;;;10.53;9.87;;;16.60;66.20;;;;;;20748;6833;117885;-69
2023/08/30 00:26:19;;;;;;;13.45;12.45;;;16.60;66.00;;;;;;20542;6833;278979;-69
2023/08/30 00:28:45;;;;;;;13.07;12.33;;;16.80;65.80;;;;;;20539;6833;319717;-69
2023/08/30 00:31:10;;;;;;;12.90;12.10;;;17.20;64.60;;;;;;20539;6833;308053;-69
2023/08/30 00:33:36;;;;;;;11.50;10.60;;;17.40;64.00;;;;;;20736;6833;123319;-69
2023/08/30 00:36:01;;;;;;;12.10;11.40;;;17.30;63.70;;;;;;20546;6831;336936;-69
2023/08/30 00:38:27;;;;;;;10.57;9.87;;;17.40;63.40;;;;;;20755;6832;119605;-69
2023/08/30 00:40:53;;;;;;;10.95;10.10;;;17.20;63.90;;;;;;20744;6832;119855;-69
2023/08/30 00:43:19;;;;;;;10.30;9.50;;;16.80;65.50;;;;;;20751;6832;117654;-69
2023/08/30 00:45:44;;;;;;;12.43;11.63;;;16.70;65.40;;;;;;20518;6833;415549;-69
2023/08/30 00:48:10;;;;;;;13.40;12.50;;;16.90;65.00;;;;;;20541;6833;337546;-69
2023/08/30 00:50:35;;;;;;;10.73;9.93;;;17.20;63.70;;;;;;20748;6833;120701;-69
2023/08/30 00:53:05;;;;;;;13.27;12.35;;;17.10;63.90;;;;;;20538;6833;278250;-69
2023/08/30 00:55:27;;;;;;;10.50;9.87;;;17.10;64.30;;;;;;20727;6833;153462;-69
2023/08/30 00:57:52;;;;;;;13.40;12.40;;;17.00;64.60;;;;;;20539;6833;279219;-69
2023/08/30 01:00:18;;;;;;;13.82;12.95;;;17.30;63.10;;;;;;20539;6833;312665;-69
2023/08/30 01:02:44;;;;;;;12.37;11.47;;;17.30;63.10;;;;;;20730;6833;117802;-69
2023/08/30 01:05:10;;;;;;;11.15;9.45;;;17.20;63.40;;;;;;20750;6833;117688;-70
2023/08/30 01:07:35;;;;;;;10.97;9.93;;;16.90;64.30;;;;;;20738;6833;117518;-69
2023/08/30 01:10:01;;;;;;;291.63;16.40;;;16.70;65.30;;;;;;20746;6833;120796;-69
2023/08/30 01:12:26;;;;;;;138.52;12.70;;;16.50;66.00;;;;;;20752;6833;117762;-69
2023/08/30 01:14:58;;;;;;;137.98;13.48;;;16.40;66.60;;;;;;20727;6833;117869;-69
2023/08/30 01:17:24;;;;;;;137.63;15.33;;;16.30;67.10;;;;;;20736;6833;123539;-69
2023/08/30 01:19:55;;;;;;;81.03;11.10;;;16.20;67.70;;;;;;20716;6833;122587;-69
2023/08/30 01:22:21;;;;;;;45.67;13.33;;;16.10;68.10;;;;;;20519;6833;280413;-69
2023/08/30 01:24:56;;;;;;;257.55;16.75;;;16.30;67.30;;;;;;20480;6833;308604;-69
2023/08/30 01:27:21;;;;;;;117.43;15.40;;;16.70;65.70;;;;;;20529;6833;308813;-69
2023/08/30 01:29:47;;;;;;;11.05;10.25;;;17.00;63.80;;;;;;20719;6833;121587;-69
2023/08/30 01:32:13;;;;;;;11.20;10.32;;;16.90;63.90;;;;;;20738;6833;120159;-69
2023/08/30 01:34:38;;;;;;;10.20;9.60;;;16.60;64.80;;;;;;20746;6833;121943;-69
2023/08/30 01:37:04;;;;;;;10.77;10.07;;;16.10;66.60;;;;;;20747;6833;119457;-69
2023/08/30 01:39:30;;;;;;;13.83;12.93;;;16.10;66.60;;;;;;20511;6833;279300;-69
2023/08/30 01:41:58;;;;;;;11.47;10.77;;;16.30;66.50;;;;;;20740;6833;117711;-69
2023/08/30 01:44:21;;;;;;;13.73;12.93;;;16.30;66.40;;;;;;20527;6833;313388;-69
2023/08/30 01:46:47;;;;;;;10.85;10.15;;;16.40;66.00;;;;;;20754;6831;119640;-69
2023/08/30 01:49:13;;;;;;;10.27;9.57;;;16.50;66.00;;;;;;20753;6832;117320;-69
2023/08/30 01:51:38;;;;;;;12.88;12.02;;;16.30;66.50;;;;;;20517;6832;316076;-69
2023/08/30 01:54:04;;;;;;;11.00;10.20;;;16.40;65.80;;;;;;20755;6832;118738;-69
2023/08/30 01:56:30;;;;;;;10.13;9.20;;;16.40;65.90;;;;;;20745;6832;123383;-69
2023/08/30 01:58:55;;;;;;;9.15;8.60;;;16.20;66.50;;;;;;20754;6833;119443;-69
2023/08/30 02:01:21;;;;;;;8.85;8.23;;;16.10;67.20;;;;;;20747;6833;121100;-69
2023/08/30 02:03:46;;;;;;;9.00;8.48;;;15.90;67.60;;;;;;20723;6833;121861;-69
2023/08/30 02:06:25;;;;;;;9.23;8.68;;;15.80;67.90;;;;;;20748;6833;122114;-69
2023/08/30 02:09:14;;;;;;;11.60;10.90;;;15.70;68.30;;;;;;20508;6833;310559;-69
2023/08/30 02:11:40;;;;;;;11.77;11.10;;;16.00;67.10;;;;;;20509;6833;278555;-69
2023/08/30 02:14:06;;;;;;;10.57;8.98;;;16.50;64.90;;;;;;20734;6833;122549;-69
2023/08/30 02:16:31;;;;;;;9.63;8.97;;;16.30;66.10;;;;;;20736;6833;119483;-69
2023/08/30 02:18:57;;;;;;;11.63;10.83;;;16.20;65.70;;;;;;20539;6833;293699;-69
2023/08/30 02:21:22;;;;;;;10.03;9.30;;;16.40;65.40;;;;;;20748;6833;121455;-69
2023/08/30 02:23:51;;;;;;;8.50;8.00;;;16.40;65.60;;;;;;20726;6833;120036;-69
2023/08/30 02:26:20;;;;;;;11.75;11.05;;;16.30;66.20;;;;;;20520;6833;336670;-69
2023/08/30 02:28:45;;;;;;;9.50;9.00;;;16.40;65.00;;;;;;20732;6833;117508;-69
2023/08/30 02:31:11;;;;;;;9.52;8.65;;;16.40;65.10;;;;;;20757;6833;117158;-69
2023/08/30 02:33:37;;;;;;;9.10;8.50;;;16.30;65.80;;;;;;20726;6833;117760;-69
2023/08/30 02:36:03;;;;;;;9.17;8.57;;;16.00;67.00;;;;;;20756;6833;119780;-69
2023/08/30 02:38:28;;;;;;;9.33;8.70;;;16.00;67.00;;;;;;20732;6833;117421;-69
2023/08/30 02:40:54;;;;;;;8.68;8.13;;;15.90;67.40;;;;;;20744;6833;121117;-69
2023/08/30 02:43:20;;;;;;;9.02;8.13;;;15.80;69.10;;;;;;20740;6833;119792;-69
2023/08/30 02:45:46;;;;;;;8.60;8.00;;;15.80;68.40;;;;;;20719;6833;120238;-69
2023/08/30 02:48:11;;;;;;;9.27;8.67;;;15.70;68.70;;;;;;20743;6833;117572;-69
2023/08/30 02:50:37;;;;;;;8.95;8.18;;;15.70;69.00;;;;;;20742;6833;117661;-69
2023/08/30 02:53:03;;;;;;;9.33;8.67;;;15.70;69.30;;;;;;20740;6833;117776;-69
2023/08/30 02:55:28;;;;;;;12.10;11.30;;;15.70;69.40;;;;;;20512;6833;280515;-68
2023/08/30 02:57:54;;;;;;;11.27;9.00;;;15.90;67.60;;;;;;20745;6831;120009;-68
2023/08/30 03:00:19;;;;;;;12.43;11.67;;;16.00;67.40;;;;;;20529;6832;310666;-68
2023/08/30 03:02:45;;;;;;;13.68;12.45;;;16.30;66.10;;;;;;20532;6832;312591;-69
2023/08/30 03:05:12;;;;;;;13.03;12.03;;;16.60;64.70;;;;;;20530;6832;336746;-69
2023/08/30 03:07:36;;;;;;;12.90;12.00;;;16.90;64.00;;;;;;20507;6832;312042;-69
2023/08/30 03:10:03;;;;;;;13.15;12.35;;;17.10;63.40;;;;;;20536;6833;311750;-69
2023/08/30 03:12:28;;;;;;;10.40;9.80;;;17.00;62.60;;;;;;20752;6833;119657;-69
2023/08/30 03:14:53;;;;;;;29.10;11.00;;;17.00;62.60;;;;;;20739;6833;117343;-69
2023/08/30 03:17:19;;;;;;;10.48;9.68;;;16.70;63.70;;;;;;20757;6833;117522;-69
2023/08/30 03:19:44;;;;;;;94.43;12.18;;;16.40;64.70;;;;;;20737;6833;121710;-69
2023/08/30 03:22:10;;;;;;;10.77;9.80;;;16.20;65.60;;;;;;20753;6833;121342;-69
2023/08/30 03:24:36;;;;;;;25.77;12.33;;;16.10;66.40;;;;;;20533;6833;310409;-69
2023/08/30 03:27:01;;;;;;;20.00;10.43;;;16.30;66.40;;;;;;20752;6833;122116;-69
2023/08/30 03:29:27;;;;;;;156.40;12.00;;;16.30;66.40;;;;;;20712;6833;120253;-69
2023/08/30 03:31:52;;;;;;;197.13;12.03;;;16.20;66.80;;;;;;20612;6833;118180;-69
2023/08/30 03:34:18;;;;;;;133.93;11.30;;;16.10;67.30;;;;;;20748;6833;120275;-68
2023/08/30 03:36:44;;;;;;;21.27;9.10;;;15.90;67.60;;;;;;20723;6833;120311;-69
2023/08/30 03:39:09;;;;;;;68.55;12.55;;;15.80;68.10;;;;;;20491;6833;308426;-69
2023/08/30 03:41:35;;;;;;;15.33;12.50;;;16.00;67.40;;;;;;20517;6833;278141;-69
2023/08/30 03:44:00;;;;;;;16.83;11.80;;;16.40;65.80;;;;;;20513;6833;281655;-69
2023/08/30 03:46:26;;;;;;;10.30;9.50;;;16.80;64.60;;;;;;20731;6833;121385;-69
2023/08/30 03:48:52;;;;;;;22.17;11.57;;;16.70;64.80;;;;;;20476;6833;282467;-70
2023/08/30 03:51:17;;;;;;;10.48;9.65;;;16.70;63.70;;;;;;20688;6833;121324;-71
2023/08/30 03:53:43;;;;;;;99.37;11.70;;;16.60;64.20;;;;;;20678;6833;117991;-70
2023/08/30 03:56:08;;;;;;;99.47;14.63;;;16.40;65.10;;;;;;20496;6833;280988;-70
2023/08/30 03:58:34;;;;;;;22.63;10.57;;;16.50;64.70;;;;;;20701;6833;118586;-70
2023/08/30 04:00:59;;;;;;;109.78;14.30;;;16.50;64.90;;;;;;20497;6833;279205;-70
2023/08/30 04:03:25;;;;;;;49.30;11.07;;;16.60;64.20;;;;;;20708;6833;121122;-73
2023/08/30 04:05:57;;;;;;;66.43;13.97;;;16.50;64.40;;;;;;20353;6833;336772;-70
2023/08/30 04:08:22;;;;;;;23.03;11.13;;;16.60;64.30;;;;;;20734;6833;120692;-73
2023/08/30 04:10:49;;;;;;;26.60;13.50;;;16.50;64.50;;;;;;20532;6831;299436;-72
2023/08/30 04:13:15;;;;;;;29.05;13.27;;;16.60;64.20;;;;;;20547;6832;279760;-72
2023/08/30 04:15:39;;;;;;;12.03;10.90;;;16.90;63.10;;;;;;20739;6832;128278;-73
2023/08/30 04:18:06;;;;;;;14.50;13.57;;;16.80;63.40;;;;;;20545;6832;312964;-73
2023/08/30 04:20:35;;;;;;;15.20;13.70;;;16.80;63.00;;;;;;20435;6833;307317;-72
2023/08/30 04:22:58;;;;;;;14.07;13.13;;;16.90;62.20;;;;;;20525;6833;308176;-73
2023/08/30 04:25:23;;;;;;;10.37;9.67;;;17.10;61.90;;;;;;20698;6833;117896;-73
2023/08/30 04:27:48;;;;;;;13.90;12.82;;;16.90;62.40;;;;;;20469;6833;308176;-72
2023/08/30 04:30:14;;;;;;;14.43;13.60;;;16.90;61.90;;;;;;20492;6833;308148;-74
2023/08/30 04:32:40;;;;;;;12.07;11.17;;;17.00;61.20;;;;;;20706;6833;117977;-72
2023/08/30 04:35:05;;;;;;;11.47;10.63;;;16.80;61.80;;;;;;20657;6833;118236;-72
2023/08/30 04:37:31;;;;;;;10.80;9.90;;;16.40;62.70;;;;;;20737;6833;118090;-72
2023/08/30 04:39:57;;;;;;;11.40;10.37;;;16.10;63.70;;;;;;20760;6833;117815;-73
2023/08/30 04:42:23;;;;;;;12.32;11.63;;;16.00;64.50;;;;;;20542;6833;337218;-73
2023/08/30 04:44:49;;;;;;;11.73;10.93;;;16.00;64.70;;;;;;20746;6833;121555;-72
2023/08/30 04:47:16;;;;;;;10.00;9.40;;;15.90;66.20;;;;;;20747;6833;120133;-72
2023/08/30 04:49:41;;;;;;;10.50;9.90;;;15.80;65.30;;;;;;20718;6833;117467;-73
2023/08/30 04:52:08;;;;;;;11.17;10.23;;;15.60;67.10;;;;;;20742;6833;117775;-73
2023/08/30 04:54:33;;;;;;;13.43;12.43;;;15.60;66.60;;;;;;20529;6833;315435;-73
2023/08/30 04:57:00;;;;;;;11.10;10.20;;;15.80;65.90;;;;;;20751;6833;118405;-73
2023/08/30 04:59:27;;;;;;;13.60;12.80;;;16.10;65.30;;;;;;20519;6833;312175;-74
2023/08/30 05:01:52;;;;;;;10.80;10.10;;;16.00;65.20;;;;;;20745;6833;118168;-74
2023/08/30 05:04:18;;;;;;;12.68;11.88;;;16.10;65.20;;;;;;20533;6833;307593;-74
2023/08/30 05:06:43;;;;;;;13.60;12.67;;;16.20;64.70;;;;;;20536;6833;278111;-73
2023/08/30 05:09:09;;;;;;;13.70;12.80;;;16.50;63.10;;;;;;20538;6833;283073;-73
2023/08/30 05:11:35;;;;;;;10.38;9.77;;;16.80;62.40;;;;;;20719;6833;120065;-73
2023/08/30 05:14:02;;;;;;;10.32;9.73;;;16.70;62.80;;;;;;20739;6833;117772;-74
2023/08/30 05:16:27;;;;;;;12.17;11.37;;;16.40;63.70;;;;;;20523;6833;307603;-74
2023/08/30 05:18:53;;;;;;;11.27;10.32;;;16.50;63.30;;;;;;20752;6833;120542;-73
2023/08/30 05:21:18;;;;;;;12.80;12.00;;;16.40;63.70;;;;;;20533;6831;311998;-72
2023/08/30 05:23:44;;;;;;;11.88;11.27;;;16.50;63.20;;;;;;20519;6832;312133;-73
2023/08/30 05:26:12;;;;;;;10.23;9.52;;;16.70;62.80;;;;;;20742;6832;117731;-72
2023/08/30 05:28:36;;;;;;;9.10;8.57;;;16.70;62.80;;;;;;20749;6832;117352;-73
2023/08/30 05:31:01;;;;;;;12.02;11.23;;;16.50;63.70;;;;;;20531;6832;315658;-73
2023/08/30 05:33:27;;;;;;;12.13;11.38;;;16.60;62.90;;;;;;20515;6833;308145;-74
2023/08/30 05:35:53;;;;;;;10.80;9.80;;;16.90;61.90;;;;;;20743;6833;117757;-71
2023/08/30 05:38:18;;;;;;;12.25;11.43;;;16.80;62.20;;;;;;20381;6833;311148;-72
2023/08/30 05:40:45;;;;;;;10.30;9.50;;;16.80;62.10;;;;;;20711;6833;117890;-73
2023/08/30 05:43:12;;;;;;;12.70;11.90;;;16.80;62.70;;;;;;20513;6833;308589;-73
2023/08/30 05:45:39;;;;;;;10.43;9.63;;;16.80;62.20;;;;;;20746;6833;67314;-72
2023/08/30 05:48:08;;;;;;;8.87;8.37;;;16.80;62.60;;;;;;20681;6833;119317;-74
2023/08/30 05:50:33;;;;;;;8.93;8.33;;;16.50;63.30;;;;;;20736;6833;121414;-72
2023/08/30 05:53:00;;;;;;;12.20;11.40;;;16.50;64.00;;;;;;20498;6833;278486;-71
2023/08/30 05:55:26;;;;;;;11.93;11.13;;;16.50;64.00;;;;;;20525;6833;307618;-75
2023/08/30 05:57:51;;;;;;;11.93;11.23;;;16.80;62.60;;;;;;20535;6833;281318;-72
2023/08/30 06:00:17;;;;;;;11.80;11.00;;;17.10;61.80;;;;;;20534;6833;337581;-72
2023/08/30 06:02:42;;;;;;;11.63;10.93;;;17.30;61.20;;;;;;20470;6833;283082;-72
2023/08/30 06:05:08;;;;;;;12.32;11.63;;;17.50;61.00;;;;;;20531;6833;308066;-74
2023/08/30 06:07:35;;;;;;;9.87;9.10;;;17.60;60.10;;;;;;20743;6833;117507;-73
2023/08/30 06:10:01;;;;;;;9.27;8.77;;;17.40;61.00;;;;;;20732;6833;120029;-73
2023/08/30 06:12:27;;;;;;;9.10;8.60;;;17.10;62.10;;;;;;20738;6833;117146;-73
2023/08/30 06:14:53;;;;;;;11.50;10.70;;;16.90;63.10;;;;;;20533;6833;330065;-73
2023/08/30 06:17:18;;;;;;;12.07;11.37;;;17.00;62.80;;;;;;20520;6833;311299;-72
2023/08/30 06:19:44;;;;;;;9.30;8.80;;;17.20;61.90;;;;;;20728;6833;118027;-73
2023/08/30 06:22:09;;;;;;;12.07;11.00;;;17.20;62.40;;;;;;20531;6833;307176;-73
2023/08/30 06:24:36;;;;;;;11.87;11.13;;;17.50;61.70;;;;;;20534;6833;282940;-73
2023/08/30 06:27:01;;;;;;;9.83;9.03;;;17.50;61.50;;;;;;20748;6833;116903;-72
2023/08/30 06:29:27;;;;;;;9.23;8.48;;;17.50;62.00;;;;;;20731;6833;117423;-73
2023/08/30 06:31:52;;;;;;;10.50;9.90;;;17.30;62.90;;;;;;20532;6831;278088;-72
2023/08/30 06:34:19;;;;;;;9.75;8.93;;;17.40;62.30;;;;;;20744;6832;117488;-75
2023/08/30 06:36:44;;;;;;;9.10;8.60;;;17.30;62.80;;;;;;20750;6832;117366;-72
2023/08/30 06:39:11;;;;;;;8.32;7.72;;;17.10;63.90;;;;;;20742;6832;117878;-72
2023/08/30 06:41:36;;;;;;;8.90;8.20;;;17.00;63.80;;;;;;20720;6832;118705;-73
2023/08/30 06:44:04;;;;;;;8.30;7.90;;;16.90;64.50;;;;;;20747;6833;117787;-73
2023/08/30 06:46:29;;;;;;;11.85;11.15;;;16.90;65.00;;;;;;20531;6833;337512;-72
2023/08/30 06:48:55;;;;;;;9.77;8.97;;;17.10;64.40;;;;;;20752;6833;117885;-72
2023/08/30 06:51:20;;;;;;;11.53;10.73;;;17.20;64.50;;;;;;20522;6833;311368;-72
2023/08/30 06:53:47;;;;;;;10.70;9.70;;;17.40;63.30;;;;;;20734;6833;121776;-73
2023/08/30 06:56:18;;;;;;;9.07;8.47;;;17.40;63.30;;;;;;20720;6833;122415;-73
2023/08/30 06:58:43;;;;;;;8.97;8.47;;;17.30;63.80;;;;;;20750;6833;117429;-75
2023/08/30 07:01:09;;;;;;;9.07;8.32;;;17.00;65.20;;;;;;20748;6833;117643;-77
2023/08/30 07:03:35;;;;;;;11.07;10.30;;;17.00;65.00;;;;;;20524;6833;311322;-74
2023/08/30 07:06:03;;;;;;;9.27;8.67;;;17.40;64.30;;;;;;20750;6833;117859;-77
2023/08/30 07:08:28;;;;;;;10.80;10.03;;;17.40;64.20;;;;;;20534;6833;307156;-72
2023/08/30 07:10:54;;;;;;;10.82;10.13;;;17.60;62.70;;;;;;20536;6833;278164;-73
2023/08/30 07:13:19;;;;;;;10.32;9.63;;;18.00;61.70;;;;;;20527;6833;317837;-73
2023/08/30 07:15:46;;;;;;;10.73;9.80;;;18.30;60.70;;;;;;20509;6833;287662;-72
2023/08/30 07:18:11;;;;;;;10.73;9.90;;;18.80;59.40;;;;;;20519;6833;307625;-73
2023/08/30 07:20:37;;;;;;;8.43;7.93;;;18.70;59.30;;;;;;20733;6833;117366;-72
2023/08/30 07:23:02;;;;;;;8.93;8.43;;;18.60;60.00;;;;;;20530;6833;283890;-72
2023/08/30 07:25:33;;;;;;;9.65;8.80;;;18.70;59.20;;;;;;20466;6833;282557;-73
2023/08/30 07:27:57;;;;;;;9.90;9.30;;;18.90;58.50;;;;;;20472;6833;336025;-72
2023/08/30 07:30:22;;;;;;;9.70;9.17;;;19.10;58.50;;;;;;20493;6833;309777;-73
2023/08/30 07:32:48;;;;;;;8.23;7.83;;;19.30;58.00;;;;;;20720;6833;120013;-72
2023/08/30 07:35:14;;;;;;;7.70;7.30;;;19.20;58.90;;;;;;20740;6833;123062;-71
2023/08/30 07:37:39;;;;;;;7.18;6.68;;;18.90;60.00;;;;;;20729;6833;117353;-73
2023/08/30 07:40:05;;;;;;;7.80;7.20;;;18.80;61.00;;;;;;20744;6833;116833;-73
2023/08/30 07:42:31;;;;;;;8.73;8.23;;;18.70;61.60;;;;;;20527;6833;308394;-73
2023/08/30 07:44:57;;;;;;;9.50;9.00;;;19.20;58.90;;;;;;20531;6831;308132;-73
2023/08/30 07:47:23;;;;;;;9.50;8.90;;;19.20;58.90;;;;;;20537;6832;278111;-73
2023/08/30 07:49:48;;;;;;;8.40;7.90;;;19.40;57.80;;;;;;20741;6832;117268;-73
2023/08/30 07:52:14;;;;;;;7.72;7.32;;;19.40;58.50;;;;;;20762;6832;117470;-73
2023/08/30 07:54:39;;;;;;;8.03;7.63;;;19.10;59.30;;;;;;20749;6833;117594;-73
2023/08/30 07:57:05;;;;;;;9.38;8.88;;;19.00;60.00;;;;;;20526;6833;312320;-74
2023/08/30 07:59:30;;;;;;;9.57;8.97;;;19.00;59.10;;;;;;20523;6833;299362;-73
2023/08/30 08:01:56;;;;;;;9.13;8.38;;;19.30;58.50;;;;;;20523;6833;307594;-72
2023/08/30 08:04:22;;;;;;;7.50;7.10;;;19.60;58.00;;;;;;20756;6833;118522;-70
2023/08/30 08:06:47;;;;;;;9.15;8.55;;;19.60;58.70;;;;;;20529;6833;278095;-71
2023/08/30 08:09:13;;;;;;;8.67;8.07;;;19.70;57.70;;;;;;20488;6833;280889;-70
2023/08/30 08:11:43;;;;;;;9.35;8.45;;;19.90;57.90;;;;;;20515;6833;312201;-70
2023/08/30 08:14:04;;;;;;;8.60;8.00;;;20.10;57.70;;;;;;20523;6833;278246;-70
2023/08/30 08:16:29;;;;;;;8.05;7.60;;;20.30;57.10;;;;;;20523;6833;302688;-71
2023/08/30 08:18:58;;;;;;;6.67;6.23;;;20.50;56.30;;;;;;20743;6833;117403;-72
2023/08/30 08:21:21;;;;;;;6.87;6.37;;;20.40;57.20;;;;;;20743;6833;117721;-73
2023/08/30 08:23:49;;;;;;;7.10;6.70;;;20.10;58.00;;;;;;20530;6833;297112;-73
2023/08/30 08:26:13;;;;;;;6.67;6.27;;;20.10;56.70;;;;;;20741;6833;117664;-72
2023/08/30 08:28:38;;;;;;;6.87;6.53;;;20.10;57.60;;;;;;20550;6833;341631;-72
2023/08/30 08:31:04;;;;;;;6.07;5.78;;;20.10;56.80;;;;;;20742;6833;117434;-72
2023/08/30 08:33:30;;;;;;;7.00;6.53;;;20.10;57.60;;;;;;20514;6833;280151;-71
2023/08/30 08:35:56;;;;;;;6.40;6.10;;;20.20;57.90;;;;;;20738;6833;117880;-72
2023/08/30 08:38:21;;;;;;;6.10;5.80;;;20.20;57.90;;;;;;20741;6833;117542;-71
2023/08/30 08:40:50;;;;;;;6.00;5.50;;;20.00;58.40;;;;;;20696;6833;117333;-71
2023/08/30 08:43:17;;;;;;;5.63;5.33;;;19.90;59.00;;;;;;20697;6833;117190;-71
2023/08/30 08:45:43;;;;;;;6.72;6.43;;;19.80;59.60;;;;;;20474;6833;337990;-71
2023/08/30 08:48:09;;;;;;;6.07;5.77;;;20.00;58.70;;;;;;20679;6833;118980;-70
2023/08/30 08:50:34;;;;;;;6.83;6.43;;;20.10;59.00;;;;;;20407;6833;309008;-71
2023/08/30 08:53:00;;;;;;;6.18;5.87;;;20.40;58.50;;;;;;20714;6833;118677;-71
2023/08/30 08:55:26;;;;;;;5.53;5.03;;;20.50;58.80;;;;;;20695;6831;121409;-72
2023/08/30 08:57:51;;;;;;;6.20;5.90;;;20.40;58.90;;;;;;20471;6847;283102;-72
2023/08/30 09:00:17;;;;;;;5.83;5.43;;;20.70;57.30;;;;;;20762;6829;119427;-71
2023/08/30 09:02:42;;;;;;;8.17;5.37;;;20.80;57.80;;;;;;20725;6829;121096;-71
2023/08/30 09:05:09;;;;;;;6.03;5.60;;;21.00;56.60;;;;;;20541;6829;278122;-71
2023/08/30 09:07:34;;;;;;;4.97;4.67;;;21.00;56.60;;;;;;20726;6829;120664;-70
2023/08/30 09:10:00;;;;;;;5.13;4.83;;;21.10;57.30;;;;;;20748;6829;116496;-71
2023/08/30 09:12:25;;;;;;;4.83;4.53;;;21.10;58.10;;;;;;20749;6829;116426;-73
2023/08/30 09:14:55;;;;;;;5.27;4.90;;;21.10;58.60;;;;;;20502;6829;279770;-71
2023/08/30 09:17:20;;;;;;;5.17;4.70;;;21.30;56.90;;;;;;20513;6829;312015;-72
2023/08/30 09:19:47;;;;;;;4.80;4.50;;;21.70;54.70;;;;;;20511;6829;334308;-73
2023/08/30 09:22:13;;;;;;;5.27;4.90;;;22.00;54.00;;;;;;20534;6829;306976;-71
2023/08/30 09:24:39;;;;;;;4.90;4.50;;;22.50;53.00;;;;;;20528;6829;280692;-69
2023/08/30 09:27:05;;;;;;;7.73;4.03;;;22.50;53.00;;;;;;20729;6829;117174;-73
2023/08/30 09:29:31;;;;;;;4.70;4.40;;;22.50;54.80;;;;;;20716;6829;117330;-71
2023/08/30 09:31:56;;;;;;;4.07;3.87;;;22.20;54.90;;;;;;20726;6829;119312;-69
2023/08/30 09:34:21;;;;;;;4.25;4.00;;;22.00;55.60;;;;;;20734;6829;118152;-69
2023/08/30 09:36:48;;;;;;;4.60;4.40;;;21.90;56.50;;;;;;20520;6829;282350;-73
2023/08/30 09:39:13;;;;;;;4.60;4.30;;;22.10;54.80;;;;;;20512;6829;341669;-71
2023/08/30 09:41:41;;;;;;;4.70;4.40;;;22.50;54.20;;;;;;20490;6829;312562;-69
2023/08/30 09:44:11;;;;;;;4.40;4.10;;;22.80;52.90;;;;;;20714;6829;119057;-71
2023/08/30 09:46:54;;;;;;;4.33;3.93;;;22.80;53.80;;;;;;20731;6829;117593;-70
2023/08/30 09:49:23;;;;;;;4.10;3.90;;;22.80;54.90;;;;;;20710;6829;117312;-69
2023/08/30 09:51:49;;;;;;;4.73;4.43;;;22.80;52.00;;;;;;20503;6829;278026;-68
2023/08/30 09:54:18;;;;;;;4.47;4.07;;;22.80;52.00;;;;;;20735;6829;117366;-70
2023/08/30 09:56:44;;;;;;;3.40;3.30;;;22.80;53.20;;;;;;20739;6829;117325;-70
2023/08/30 09:59:11;;;;;;;3.90;3.70;;;22.90;52.90;;;;;;20520;6829;314581;-68
2023/08/30 10:01:36;;;;;;;4.00;3.70;;;22.90;52.80;;;;;;20524;6829;296453;-68
2023/08/30 10:04:03;;;;;;;4.00;3.80;;;23.40;49.10;;;;;;20541;6829;294135;-68
2023/08/30 10:06:28;;;;;;;3.87;3.67;;;23.40;49.10;;;;;;20694;6850;117135;-73
2023/08/30 10:08:54;;;;;;;3.63;3.33;;;23.30;50.40;;;;;;20700;6847;117343;-75
2023/08/30 10:11:19;;;;;;;3.67;3.47;;;23.00;51.40;;;;;;20549;6829;278081;-73
2023/08/30 10:13:44;;;;;;;4.17;3.87;;;23.00;51.00;;;;;;20510;6829;336556;-71
2023/08/30 10:16:10;;;;;;;3.60;3.33;;;23.30;50.20;;;;;;20751;6829;117743;-71
2023/08/30 10:18:36;;;;;;;3.62;3.42;;;23.30;50.00;;;;;;20549;6829;277830;-73
2023/08/30 10:21:02;;;;;;;3.80;3.60;;;23.20;49.90;;;;;;20531;6829;308301;-71
2023/08/30 10:23:28;;;;;;;3.10;3.00;;;23.40;49.30;;;;;;20666;6851;119939;-72
2023/08/30 10:25:54;;;;;;;3.70;3.50;;;23.30;50.40;;;;;;20485;6847;307567;-72
2023/08/30 10:28:20;;;;;;;3.60;3.40;;;23.30;49.30;;;;;;20554;6829;313286;-73
2023/08/30 10:30:45;;;;;;;3.90;3.60;;;23.50;50.30;;;;;;20525;6829;277895;-72
2023/08/30 10:33:11;;;;;;;3.90;3.70;;;23.60;49.60;;;;;;20757;6829;117127;-74
2023/08/30 10:35:37;;;;;;;3.17;2.97;;;23.50;50.60;;;;;;20729;6829;119449;-73
2023/08/30 10:38:02;;;;;;;3.30;3.13;;;23.10;51.50;;;;;;20646;6851;120129;-73
2023/08/30 10:40:28;;;;;;;3.80;3.60;;;22.80;52.20;;;;;;20486;6847;303108;-73
2023/08/30 10:43:03;;;;;;;3.73;3.53;;;22.80;50.40;;;;;;20743;6829;119752;-74
2023/08/30 10:45:32;;;;;;;3.70;3.50;;;22.80;51.50;;;;;;20515;6829;337422;-77
2023/08/30 10:47:58;;;;;;;3.80;3.60;;;23.30;50.20;;;;;;20550;6829;277573;-75
2023/08/30 10:50:27;;;;;;;3.13;3.03;;;23.20;50.00;;;;;;20728;6829;120008;-72
2023/08/30 10:52:57;;;;;;;3.10;3.00;;;23.30;51.10;;;;;;20731;6829;121182;-74
2023/08/30 10:55:22;;;;;;;3.10;3.00;;;23.20;51.70;;;;;;20526;6829;278232;-71
2023/08/30 10:57:49;;;;;;;3.00;2.90;;;23.70;49.90;;;;;;20514;6829;307620;-72
2023/08/30 11:00:18;;;;;;;3.17;2.97;;;23.70;49.90;;;;;;20688;6829;119869;-71
2023/08/30 11:02:43;;;;;;;3.60;3.40;;;23.80;50.40;;;;;;20546;6829;278055;-71
2023/08/30 11:05:09;;;;;;;3.37;3.17;;;23.90;47.40;;;;;;20544;6829;308301;-72
2023/08/30 11:07:34;;;;;;;2.97;2.87;;;24.10;47.00;;;;;;20729;6829;118199;-71
2023/08/30 11:10:00;;;;;;;3.10;2.90;;;24.00;48.10;;;;;;20747;6829;117586;-74
2023/08/30 11:12:25;;;;;;;3.50;3.30;;;23.80;49.00;;;;;;20555;6829;278117;-74
2023/08/30 11:14:52;;;;;;;3.17;3.03;;;24.20;48.10;;;;;;20556;6829;336389;-76
2023/08/30 11:17:17;;;;;;;3.30;3.10;;;24.20;48.00;;;;;;20515;6829;307718;-77
2023/08/30 11:19:43;;;;;;;3.17;3.05;;;24.50;46.30;;;;;;20538;6828;282747;-74
2023/08/30 11:22:08;;;;;;;2.60;2.47;;;24.60;44.00;;;;;;20761;6829;117492;-74
2023/08/30 11:24:34;;;;;;;3.05;2.80;;;24.60;46.20;;;;;;20555;6829;282657;-76
2023/08/30 11:27:00;;;;;;;3.40;3.20;;;24.60;46.60;;;;;;20542;6829;278068;-74
2023/08/30 11:29:26;;;;;;;3.10;2.90;;;24.80;45.20;;;;;;20762;6829;117215;-77
2023/08/30 11:31:52;;;;;;;2.47;2.37;;;24.80;46.70;;;;;;20764;6829;117626;-76
2023/08/30 11:34:24;;;;;;;3.30;3.10;;;24.50;47.00;;;;;;20562;6829;280965;-76
2023/08/30 11:36:50;;;;;;;2.83;2.63;;;24.50;45.50;;;;;;20551;6829;308593;-76
2023/08/30 11:39:15;;;;;;;2.95;2.85;;;24.70;45.70;;;;;;20552;6829;309682;-76
2023/08/30 11:41:41;;;;;;;3.03;2.57;;;24.90;43.50;;;;;;20747;6829;123474;-76
2023/08/30 11:44:06;;;;;;;2.80;2.70;;;24.80;45.00;;;;;;20768;6829;117425;-76
2023/08/30 11:46:33;;;;;;;2.50;2.40;;;24.50;46.00;;;;;;20745;6829;117225;-76
2023/08/30 11:48:59;;;;;;;2.57;2.40;;;24.30;47.40;;;;;;20728;6829;118506;-75
2023/08/30 11:51:25;;;;;;;2.58;2.47;;;24.10;48.40;;;;;;20664;6829;121343;-76
2023/08/30 11:53:55;;;;;;;2.80;2.70;;;24.30;44.70;;;;;;20490;6829;340759;-76
2023/08/30 11:56:20;;;;;;;2.70;2.60;;;24.30;44.70;;;;;;20706;6829;117834;-76
2023/08/30 11:58:45;;;;;;;2.53;2.33;;;24.50;46.10;;;;;;20466;6847;339130;-76
2023/08/30 12:01:14;;;;;;;2.78;2.50;;;24.70;45.40;;;;;;20539;6829;309853;-76
2023/08/30 12:03:41;;;;;;;3.90;2.70;;;25.00;43.20;;;;;;20662;6851;117809;-76
2023/08/30 12:06:09;;;;;;;2.33;2.23;;;25.00;44.70;;;;;;20747;6833;117364;-75
2023/08/30 12:08:35;;;;;;;2.70;2.60;;;24.90;46.30;;;;;;20566;6829;281701;-77
2023/08/30 12:11:01;;;;;;;2.60;2.50;;;25.00;44.80;;;;;;20547;6829;312438;-77
2023/08/30 12:13:27;;;;;;;2.30;2.17;;;25.30;44.30;;;;;;20749;6829;121076;-78
2023/08/30 12:15:52;;;;;;;4.87;2.57;;;25.20;44.20;;;;;;20753;6829;117370;-77
2023/08/30 12:18:28;;;;;;;2.10;2.00;;;25.10;45.40;;;;;;20759;6829;117247;-75
2023/08/30 12:20:57;;;;;;;2.47;2.37;;;24.90;46.00;;;;;;20754;6829;122083;-78
2023/08/30 12:23:25;;;;;;;2.33;2.23;;;24.70;46.50;;;;;;20771;6829;116818;-77